sensor_id;sensor_type;location;lat;lon;timestamp;temperature;humidity
63537;DHT22;49686;51.880;5.632;2024-02-28T00:01:16;1.30;99.90
63537;DHT22;49686;51.880;5.632;2024-02-28T00:03:44;1.30;99.90
63537;DHT22;49686;51.880;5.632;2024-02-28T00:06:11;1.30;99.90
63537;DHT22;49686;51.880;5.632;2024-02-28T00:08:38;1.40;99.90
63537;DHT22;49686;51.880;5.632;2024-02-28T00:11:05;1.30;99.90
63537;DHT22;49686;51.880;5.632;2024-02-28T00:13:32;1.30;99.90
63537;DHT22;49686;51.880;5.632;2024-02-28T00:15:59;1.30;99.90
63537;DHT22;49686;51.880;5.632;2024-02-28T00:18:26;1.30;99.90
63537;DHT22;49686;51.880;5.632;2024-02-28T00:20:54;1.30;99.90
63537;DHT22;49686;51.880;5.632;2024-02-28T00:23:21;1.20;99.90
63537;DHT22;49686;51.880;5.632;2024-02-28T00:25:48;1.20;99.90
63537;DHT22;49686;51.880;5.632;2024-02-28T00:28:16;1.20;99.90
63537;DHT22;49686;51.880;5.632;2024-02-28T00:30:43;1.20;99.90
63537;DHT22;49686;51.880;5.632;2024-02-28T00:33:10;1.10;99.90
63537;DHT22;49686;51.880;5.632;2024-02-28T00:35:37;1.10;99.90
63537;DHT22;49686;51.880;5.632;2024-02-28T00:38:10;1.10;99.90
63537;DHT22;49686;51.880;5.632;2024-02-28T00:40:37;1.00;99.90
63537;DHT22;49686;51.880;5.632;2024-02-28T00:43:05;1.00;99.90
63537;DHT22;49686;51.880;5.632;2024-02-28T00:45:32;0.90;99.90
63537;DHT22;49686;51.880;5.632;2024-02-28T00:47:59;0.90;99.90
63537;DHT22;49686;51.880;5.632;2024-02-28T00:50:26;0.90;99.90
63537;DHT22;49686;51.880;5.632;2024-02-28T00:52:53;0.90;99.90
63537;DHT22;49686;51.880;5.632;2024-02-28T00:55:21;0.90;99.90
63537;DHT22;49686;51.880;5.632;2024-02-28T00:57:48;0.90;99.90
63537;DHT22;49686;51.880;5.632;2024-02-28T01:00:16;0.90;99.90
63537;DHT22;49686;51.880;5.632;2024-02-28T01:02:43;0.80;99.90
63537;DHT22;49686;51.880;5.632;2024-02-28T01:05:09;0.80;99.90
63537;DHT22;49686;51.880;5.632;2024-02-28T01:07:36;0.80;99.90
63537;DHT22;49686;51.880;5.632;2024-02-28T01:10:04;0.70;99.90
63537;DHT22;49686;51.880;5.632;2024-02-28T01:12:35;0.70;99.90
63537;DHT22;49686;51.880;5.632;2024-02-28T01:15:02;0.60;99.90
63537;DHT22;49686;51.880;5.632;2024-02-28T01:17:29;0.50;99.90
63537;DHT22;49686;51.880;5.632;2024-02-28T01:19:56;0.50;99.90
63537;DHT22;49686;51.880;5.632;2024-02-28T01:22:23;0.50;99.90
63537;DHT22;49686;51.880;5.632;2024-02-28T01:24:50;0.50;99.90
63537;DHT22;49686;51.880;5.632;2024-02-28T01:27:17;0.50;99.90
63537;DHT22;49686;51.880;5.632;2024-02-28T01:29:46;0.50;99.90
63537;DHT22;49686;51.880;5.632;2024-02-28T01:32:13;0.50;99.90
63537;DHT22;49686;51.880;5.632;2024-02-28T01:34:40;0.50;99.90
63537;DHT22;49686;51.880;5.632;2024-02-28T01:37:06;0.50;99.90
63537;DHT22;49686;51.880;5.632;2024-02-28T01:39:33;0.50;99.90
63537;DHT22;49686;51.880;5.632;2024-02-28T01:42:00;0.50;99.90
63537;DHT22;49686;51.880;5.632;2024-02-28T01:44:27;0.50;99.90
63537;DHT22;49686;51.880;5.632;2024-02-28T01:46:56;0.50;99.90
63537;DHT22;49686;51.880;5.632;2024-02-28T01:49:23;0.50;99.90
63537;DHT22;49686;51.880;5.632;2024-02-28T01:51:53;0.50;99.90
63537;DHT22;49686;51.880;5.632;2024-02-28T01:54:21;0.40;99.90
63537;DHT22;49686;51.880;5.632;2024-02-28T01:56:49;0.40;99.90
63537;DHT22;49686;51.880;5.632;2024-02-28T01:59:17;0.30;99.90
63537;DHT22;49686;51.880;5.632;2024-02-28T02:01:45;0.20;99.90
63537;DHT22;49686;51.880;5.632;2024-02-28T02:04:14;0.20;99.90
63537;DHT22;49686;51.880;5.632;2024-02-28T02:06:42;0.20;99.90
63537;DHT22;49686;51.880;5.632;2024-02-28T02:09:10;0.20;99.90
63537;DHT22;49686;51.880;5.632;2024-02-28T02:11:40;0.20;99.90
63537;DHT22;49686;51.880;5.632;2024-02-28T02:14:07;0.20;99.90
63537;DHT22;49686;51.880;5.632;2024-02-28T02:16:34;0.20;99.90
63537;DHT22;49686;51.880;5.632;2024-02-28T02:19:01;0.20;99.90
63537;DHT22;49686;51.880;5.632;2024-02-28T02:21:31;0.20;99.90
63537;DHT22;49686;51.880;5.632;2024-02-28T02:24:02;0.20;99.90
63537;DHT22;49686;51.880;5.632;2024-02-28T02:26:31;0.20;99.90
63537;DHT22;49686;51.880;5.632;2024-02-28T02:28:57;0.20;99.90
63537;DHT22;49686;51.880;5.632;2024-02-28T02:31:24;0.30;99.90
63537;DHT22;49686;51.880;5.632;2024-02-28T02:33:51;0.20;99.90
63537;DHT22;49686;51.880;5.632;2024-02-28T02:36:18;0.20;99.90
63537;DHT22;49686;51.880;5.632;2024-02-28T02:38:45;0.20;99.90
63537;DHT22;49686;51.880;5.632;2024-02-28T02:41:13;0.10;99.90
63537;DHT22;49686;51.880;5.632;2024-02-28T02:43:40;0.10;99.90
63537;DHT22;49686;51.880;5.632;2024-02-28T02:46:07;0.10;99.90
63537;DHT22;49686;51.880;5.632;2024-02-28T02:48:34;0.10;99.90
63537;DHT22;49686;51.880;5.632;2024-02-28T02:51:01;0.10;99.90
63537;DHT22;49686;51.880;5.632;2024-02-28T02:53:27;0.10;99.90
63537;DHT22;49686;51.880;5.632;2024-02-28T02:55:54;0.20;99.90
63537;DHT22;49686;51.880;5.632;2024-02-28T02:58:23;0.20;99.90
63537;DHT22;49686;51.880;5.632;2024-02-28T03:00:49;0.30;99.90
63537;DHT22;49686;51.880;5.632;2024-02-28T03:03:17;0.30;99.90
63537;DHT22;49686;51.880;5.632;2024-02-28T03:05:44;0.40;99.90
63537;DHT22;49686;51.880;5.632;2024-02-28T03:08:10;0.40;99.90
63537;DHT22;49686;51.880;5.632;2024-02-28T03:10:37;0.50;99.90
63537;DHT22;49686;51.880;5.632;2024-02-28T03:13:04;0.50;99.90
63537;DHT22;49686;51.880;5.632;2024-02-28T03:15:32;0.50;99.90
63537;DHT22;49686;51.880;5.632;2024-02-28T03:17:59;0.50;99.90
63537;DHT22;49686;51.880;5.632;2024-02-28T03:20:26;0.40;99.90
63537;DHT22;49686;51.880;5.632;2024-02-28T03:22:53;0.30;99.90
63537;DHT22;49686;51.880;5.632;2024-02-28T03:25:20;0.30;99.90
63537;DHT22;49686;51.880;5.632;2024-02-28T03:27:47;0.20;99.90
63537;DHT22;49686;51.880;5.632;2024-02-28T03:30:14;0.20;99.90
63537;DHT22;49686;51.880;5.632;2024-02-28T03:32:42;0.20;99.90
63537;DHT22;49686;51.880;5.632;2024-02-28T03:35:09;0.20;99.90
63537;DHT22;49686;51.880;5.632;2024-02-28T03:37:36;0.20;99.90
63537;DHT22;49686;51.880;5.632;2024-02-28T03:40:04;0.20;99.90
63537;DHT22;49686;51.880;5.632;2024-02-28T03:42:31;0.10;99.90
63537;DHT22;49686;51.880;5.632;2024-02-28T03:45:00;0.10;99.90
63537;DHT22;49686;51.880;5.632;2024-02-28T03:47:27;0.10;99.90
63537;DHT22;49686;51.880;5.632;2024-02-28T03:49:55;0.10;99.90
63537;DHT22;49686;51.880;5.632;2024-02-28T03:52:22;0.10;99.90
63537;DHT22;49686;51.880;5.632;2024-02-28T03:54:49;0.10;99.90
63537;DHT22;49686;51.880;5.632;2024-02-28T03:57:16;0.10;99.90
63537;DHT22;49686;51.880;5.632;2024-02-28T03:59:43;0.10;99.90
63537;DHT22;49686;51.880;5.632;2024-02-28T04:02:10;0.20;99.90
63537;DHT22;49686;51.880;5.632;2024-02-28T04:04:37;0.20;99.90
63537;DHT22;49686;51.880;5.632;2024-02-28T04:07:05;0.20;99.90
63537;DHT22;49686;51.880;5.632;2024-02-28T04:09:32;0.30;99.90
63537;DHT22;49686;51.880;5.632;2024-02-28T04:11:59;0.30;99.90
63537;DHT22;49686;51.880;5.632;2024-02-28T04:14:26;0.30;99.90
63537;DHT22;49686;51.880;5.632;2024-02-28T04:16:53;0.30;99.90
63537;DHT22;49686;51.880;5.632;2024-02-28T04:19:20;0.20;99.90
63537;DHT22;49686;51.880;5.632;2024-02-28T04:21:47;0.20;99.90
63537;DHT22;49686;51.880;5.632;2024-02-28T04:24:16;0.20;99.90
63537;DHT22;49686;51.880;5.632;2024-02-28T04:26:43;0.20;99.90
63537;DHT22;49686;51.880;5.632;2024-02-28T04:29:10;0.30;99.90
63537;DHT22;49686;51.880;5.632;2024-02-28T04:31:38;0.30;99.90
63537;DHT22;49686;51.880;5.632;2024-02-28T04:34:05;0.30;99.90
63537;DHT22;49686;51.880;5.632;2024-02-28T04:36:32;0.40;99.90
63537;DHT22;49686;51.880;5.632;2024-02-28T04:38:59;0.50;99.90
63537;DHT22;49686;51.880;5.632;2024-02-28T04:41:27;0.60;99.90
63537;DHT22;49686;51.880;5.632;2024-02-28T04:43:54;0.70;99.90
63537;DHT22;49686;51.880;5.632;2024-02-28T04:46:21;0.80;99.90
63537;DHT22;49686;51.880;5.632;2024-02-28T04:48:50;0.90;99.90
63537;DHT22;49686;51.880;5.632;2024-02-28T04:51:17;1.00;99.90
63537;DHT22;49686;51.880;5.632;2024-02-28T04:53:44;1.00;99.90
63537;DHT22;49686;51.880;5.632;2024-02-28T04:56:11;1.10;99.90
63537;DHT22;49686;51.880;5.632;2024-02-28T04:58:39;1.20;99.90
63537;DHT22;49686;51.880;5.632;2024-02-28T05:01:06;1.20;99.90
63537;DHT22;49686;51.880;5.632;2024-02-28T05:03:33;1.30;99.90
63537;DHT22;49686;51.880;5.632;2024-02-28T05:06:00;1.30;99.90
63537;DHT22;49686;51.880;5.632;2024-02-28T05:08:27;1.30;99.90
63537;DHT22;49686;51.880;5.632;2024-02-28T05:10:54;1.30;99.90
63537;DHT22;49686;51.880;5.632;2024-02-28T05:13:21;1.30;99.90
63537;DHT22;49686;51.880;5.632;2024-02-28T05:15:49;1.30;99.90
63537;DHT22;49686;51.880;5.632;2024-02-28T05:18:16;1.30;99.90
63537;DHT22;49686;51.880;5.632;2024-02-28T05:20:43;1.40;99.90
63537;DHT22;49686;51.880;5.632;2024-02-28T05:23:10;1.40;99.90
63537;DHT22;49686;51.880;5.632;2024-02-28T05:25:38;1.40;99.90
63537;DHT22;49686;51.880;5.632;2024-02-28T05:28:05;1.40;99.90
63537;DHT22;49686;51.880;5.632;2024-02-28T05:30:32;1.40;99.90
63537;DHT22;49686;51.880;5.632;2024-02-28T05:33:00;1.40;99.90
63537;DHT22;49686;51.880;5.632;2024-02-28T05:35:27;1.50;99.90
63537;DHT22;49686;51.880;5.632;2024-02-28T05:37:54;1.50;99.90
63537;DHT22;49686;51.880;5.632;2024-02-28T05:40:21;1.50;99.90
63537;DHT22;49686;51.880;5.632;2024-02-28T05:42:48;1.50;99.90
63537;DHT22;49686;51.880;5.632;2024-02-28T05:45:15;1.50;99.90
63537;DHT22;49686;51.880;5.632;2024-02-28T05:47:43;1.50;99.90
63537;DHT22;49686;51.880;5.632;2024-02-28T05:50:12;1.50;99.90
63537;DHT22;49686;51.880;5.632;2024-02-28T05:52:41;1.50;99.90
63537;DHT22;49686;51.880;5.632;2024-02-28T05:55:09;1.50;99.90
63537;DHT22;49686;51.880;5.632;2024-02-28T05:57:36;1.50;99.90
63537;DHT22;49686;51.880;5.632;2024-02-28T06:00:03;1.50;99.90
63537;DHT22;49686;51.880;5.632;2024-02-28T06:02:30;1.50;99.90
63537;DHT22;49686;51.880;5.632;2024-02-28T06:04:57;1.50;99.90
63537;DHT22;49686;51.880;5.632;2024-02-28T06:07:25;1.40;99.90
63537;DHT22;49686;51.880;5.632;2024-02-28T06:09:52;1.40;99.90
63537;DHT22;49686;51.880;5.632;2024-02-28T06:12:19;1.40;99.90
63537;DHT22;49686;51.880;5.632;2024-02-28T06:14:46;1.40;99.90
63537;DHT22;49686;51.880;5.632;2024-02-28T06:17:13;1.40;99.90
63537;DHT22;49686;51.880;5.632;2024-02-28T06:19:40;1.40;99.90
63537;DHT22;49686;51.880;5.632;2024-02-28T06:22:07;1.40;99.90
63537;DHT22;49686;51.880;5.632;2024-02-28T06:24:35;1.50;99.90
63537;DHT22;49686;51.880;5.632;2024-02-28T06:27:02;1.50;99.90
63537;DHT22;49686;51.880;5.632;2024-02-28T06:29:29;1.60;99.90
63537;DHT22;49686;51.880;5.632;2024-02-28T06:31:56;1.70;99.90
63537;DHT22;49686;51.880;5.632;2024-02-28T06:34:23;1.70;99.90
63537;DHT22;49686;51.880;5.632;2024-02-28T06:36:50;1.70;99.90
63537;DHT22;49686;51.880;5.632;2024-02-28T06:39:18;1.70;99.90
63537;DHT22;49686;51.880;5.632;2024-02-28T06:41:47;1.80;99.90
63537;DHT22;49686;51.880;5.632;2024-02-28T06:44:13;1.80;99.90
63537;DHT22;49686;51.880;5.632;2024-02-28T06:46:40;1.80;99.90
63537;DHT22;49686;51.880;5.632;2024-02-28T06:49:07;1.80;99.90
63537;DHT22;49686;51.880;5.632;2024-02-28T06:51:34;1.90;99.90
63537;DHT22;49686;51.880;5.632;2024-02-28T06:54:01;1.90;99.90
63537;DHT22;49686;51.880;5.632;2024-02-28T06:56:31;1.90;99.90
63537;DHT22;49686;51.880;5.632;2024-02-28T06:58:59;1.80;99.90
63537;DHT22;49686;51.880;5.632;2024-02-28T07:01:26;1.80;99.90
63537;DHT22;49686;51.880;5.632;2024-02-28T07:03:53;1.90;99.90
63537;DHT22;49686;51.880;5.632;2024-02-28T07:06:20;1.90;99.90
63537;DHT22;49686;51.880;5.632;2024-02-28T07:08:47;1.80;99.90
63537;DHT22;49686;51.880;5.632;2024-02-28T07:11:14;1.90;99.90
63537;DHT22;49686;51.880;5.632;2024-02-28T07:13:41;1.90;99.90
63537;DHT22;49686;51.880;5.632;2024-02-28T07:16:09;1.90;99.90
63537;DHT22;49686;51.880;5.632;2024-02-28T07:18:36;2.00;99.90
63537;DHT22;49686;51.880;5.632;2024-02-28T07:21:03;2.00;99.90
63537;DHT22;49686;51.880;5.632;2024-02-28T07:23:30;2.00;99.90
63537;DHT22;49686;51.880;5.632;2024-02-28T07:25:57;2.10;99.90
63537;DHT22;49686;51.880;5.632;2024-02-28T07:28:31;2.10;99.90
63537;DHT22;49686;51.880;5.632;2024-02-28T07:30:58;2.20;99.90
63537;DHT22;49686;51.880;5.632;2024-02-28T07:33:26;2.30;99.90
63537;DHT22;49686;51.880;5.632;2024-02-28T07:35:54;2.40;99.90
63537;DHT22;49686;51.880;5.632;2024-02-28T07:38:21;2.50;99.90
63537;DHT22;49686;51.880;5.632;2024-02-28T07:40:48;2.50;99.90
63537;DHT22;49686;51.880;5.632;2024-02-28T07:43:15;2.60;99.90
63537;DHT22;49686;51.880;5.632;2024-02-28T07:45:41;2.70;99.90
63537;DHT22;49686;51.880;5.632;2024-02-28T07:48:08;2.80;99.90
63537;DHT22;49686;51.880;5.632;2024-02-28T07:50:37;2.80;99.90
63537;DHT22;49686;51.880;5.632;2024-02-28T07:53:04;2.90;99.90
63537;DHT22;49686;51.880;5.632;2024-02-28T07:55:31;2.90;99.90
63537;DHT22;49686;51.880;5.632;2024-02-28T07:57:58;3.00;99.90
63537;DHT22;49686;51.880;5.632;2024-02-28T08:00:27;3.00;99.90
63537;DHT22;49686;51.880;5.632;2024-02-28T08:02:54;3.10;99.90
63537;DHT22;49686;51.880;5.632;2024-02-28T08:05:21;3.10;99.90
63537;DHT22;49686;51.880;5.632;2024-02-28T08:07:50;3.30;99.90
63537;DHT22;49686;51.880;5.632;2024-02-28T08:10:17;3.30;99.90
63537;DHT22;49686;51.880;5.632;2024-02-28T08:12:44;3.30;99.90
63537;DHT22;49686;51.880;5.632;2024-02-28T08:15:11;3.30;99.90
63537;DHT22;49686;51.880;5.632;2024-02-28T08:17:38;3.40;99.90
63537;DHT22;49686;51.880;5.632;2024-02-28T08:20:06;3.40;99.90
63537;DHT22;49686;51.880;5.632;2024-02-28T08:22:33;3.40;99.90
63537;DHT22;49686;51.880;5.632;2024-02-28T08:25:02;3.50;99.90
63537;DHT22;49686;51.880;5.632;2024-02-28T08:27:29;3.60;99.90
63537;DHT22;49686;51.880;5.632;2024-02-28T08:29:58;3.60;99.90
63537;DHT22;49686;51.880;5.632;2024-02-28T08:32:25;3.60;99.90
63537;DHT22;49686;51.880;5.632;2024-02-28T08:34:52;3.70;99.90
63537;DHT22;49686;51.880;5.632;2024-02-28T08:37:19;3.80;99.90
63537;DHT22;49686;51.880;5.632;2024-02-28T08:39:46;3.80;99.90
63537;DHT22;49686;51.880;5.632;2024-02-28T08:42:14;3.80;99.90
63537;DHT22;49686;51.880;5.632;2024-02-28T08:44:41;3.90;99.90
63537;DHT22;49686;51.880;5.632;2024-02-28T08:47:09;4.00;99.90
63537;DHT22;49686;51.880;5.632;2024-02-28T08:49:36;4.00;99.90
63537;DHT22;49686;51.880;5.632;2024-02-28T08:52:05;4.00;99.90
63537;DHT22;49686;51.880;5.632;2024-02-28T08:54:32;4.10;99.90
63537;DHT22;49686;51.880;5.632;2024-02-28T08:56:59;4.20;99.90
63537;DHT22;49686;51.880;5.632;2024-02-28T08:59:31;4.30;99.90
63537;DHT22;49686;51.880;5.632;2024-02-28T09:01:58;4.30;99.90
63537;DHT22;49686;51.880;5.632;2024-02-28T09:04:25;4.30;99.90
63537;DHT22;49686;51.880;5.632;2024-02-28T09:06:52;4.40;99.90
63537;DHT22;49686;51.880;5.632;2024-02-28T09:09:19;4.40;99.90
63537;DHT22;49686;51.880;5.632;2024-02-28T09:11:46;4.60;99.90
63537;DHT22;49686;51.880;5.632;2024-02-28T09:14:16;4.50;99.90
63537;DHT22;49686;51.880;5.632;2024-02-28T09:16:45;4.50;99.90
63537;DHT22;49686;51.880;5.632;2024-02-28T09:19:12;4.60;99.90
63537;DHT22;49686;51.880;5.632;2024-02-28T09:21:39;4.50;99.90
63537;DHT22;49686;51.880;5.632;2024-02-28T09:24:06;4.60;99.90
63537;DHT22;49686;51.880;5.632;2024-02-28T09:26:33;4.60;99.90
63537;DHT22;49686;51.880;5.632;2024-02-28T09:29:00;4.70;99.90
63537;DHT22;49686;51.880;5.632;2024-02-28T09:31:27;4.80;99.90
63537;DHT22;49686;51.880;5.632;2024-02-28T09:33:55;4.90;99.90
63537;DHT22;49686;51.880;5.632;2024-02-28T09:36:22;5.00;99.90
63537;DHT22;49686;51.880;5.632;2024-02-28T09:38:49;5.10;99.90
63537;DHT22;49686;51.880;5.632;2024-02-28T09:41:16;5.10;99.90
63537;DHT22;49686;51.880;5.632;2024-02-28T09:43:44;5.10;99.90
63537;DHT22;49686;51.880;5.632;2024-02-28T09:46:12;5.20;99.90
63537;DHT22;49686;51.880;5.632;2024-02-28T09:48:40;5.30;99.90
63537;DHT22;49686;51.880;5.632;2024-02-28T09:51:09;5.30;99.90
63537;DHT22;49686;51.880;5.632;2024-02-28T09:53:37;5.30;99.90
63537;DHT22;49686;51.880;5.632;2024-02-28T09:56:06;5.20;99.90
63537;DHT22;49686;51.880;5.632;2024-02-28T09:58:33;5.20;99.90
63537;DHT22;49686;51.880;5.632;2024-02-28T10:01:02;5.30;99.90
63537;DHT22;49686;51.880;5.632;2024-02-28T10:03:32;5.40;99.90
63537;DHT22;49686;51.880;5.632;2024-02-28T10:05:59;5.40;99.90
63537;DHT22;49686;51.880;5.632;2024-02-28T10:08:32;5.50;99.90
63537;DHT22;49686;51.880;5.632;2024-02-28T10:10:59;5.60;99.90
63537;DHT22;49686;51.880;5.632;2024-02-28T10:13:26;5.70;99.90
63537;DHT22;49686;51.880;5.632;2024-02-28T10:15:54;5.60;99.90
63537;DHT22;49686;51.880;5.632;2024-02-28T10:18:21;5.80;99.90
63537;DHT22;49686;51.880;5.632;2024-02-28T10:20:48;5.90;99.90
63537;DHT22;49686;51.880;5.632;2024-02-28T10:23:15;6.00;99.90
63537;DHT22;49686;51.880;5.632;2024-02-28T10:25:44;5.90;99.90
63537;DHT22;49686;51.880;5.632;2024-02-28T10:28:23;6.00;99.90
63537;DHT22;49686;51.880;5.632;2024-02-28T10:30:50;6.00;99.90
63537;DHT22;49686;51.880;5.632;2024-02-28T10:33:17;6.00;99.90
63537;DHT22;49686;51.880;5.632;2024-02-28T10:35:44;6.10;99.90
63537;DHT22;49686;51.880;5.632;2024-02-28T10:38:12;6.20;99.90
63537;DHT22;49686;51.880;5.632;2024-02-28T10:40:40;6.20;99.90
63537;DHT22;49686;51.880;5.632;2024-02-28T10:43:10;6.30;99.90
63537;DHT22;49686;51.880;5.632;2024-02-28T10:45:37;6.30;99.90
63537;DHT22;49686;51.880;5.632;2024-02-28T10:48:25;6.30;99.90
63537;DHT22;49686;51.880;5.632;2024-02-28T10:50:52;6.60;99.90
63537;DHT22;49686;51.880;5.632;2024-02-28T10:53:21;6.80;99.90
63537;DHT22;49686;51.880;5.632;2024-02-28T10:55:49;6.90;99.90
63537;DHT22;49686;51.880;5.632;2024-02-28T10:58:19;6.90;99.90
63537;DHT22;49686;51.880;5.632;2024-02-28T11:00:49;7.00;99.90
63537;DHT22;49686;51.880;5.632;2024-02-28T11:03:17;7.00;99.90
63537;DHT22;49686;51.880;5.632;2024-02-28T11:05:44;7.10;99.90
63537;DHT22;49686;51.880;5.632;2024-02-28T11:08:11;7.10;99.90
63537;DHT22;49686;51.880;5.632;2024-02-28T11:10:41;7.20;99.90
63537;DHT22;49686;51.880;5.632;2024-02-28T11:13:08;7.30;99.90
63537;DHT22;49686;51.880;5.632;2024-02-28T11:15:36;7.60;99.90
63537;DHT22;49686;51.880;5.632;2024-02-28T11:18:11;7.70;99.90
63537;DHT22;49686;51.880;5.632;2024-02-28T11:20:38;7.70;99.90
63537;DHT22;49686;51.880;5.632;2024-02-28T11:23:07;7.90;99.90
63537;DHT22;49686;51.880;5.632;2024-02-28T11:25:35;7.90;99.90
63537;DHT22;49686;51.880;5.632;2024-02-28T11:28:04;8.00;99.90
63537;DHT22;49686;51.880;5.632;2024-02-28T11:30:35;8.10;99.90
63537;DHT22;49686;51.880;5.632;2024-02-28T11:33:02;8.20;99.90
63537;DHT22;49686;51.880;5.632;2024-02-28T11:35:32;8.50;99.90
63537;DHT22;49686;51.880;5.632;2024-02-28T11:37:59;8.70;99.90
63537;DHT22;49686;51.880;5.632;2024-02-28T11:40:26;8.90;99.90
63537;DHT22;49686;51.880;5.632;2024-02-28T11:42:54;8.90;99.90
63537;DHT22;49686;51.880;5.632;2024-02-28T11:45:22;9.00;99.90
63537;DHT22;49686;51.880;5.632;2024-02-28T11:47:50;8.80;99.90
63537;DHT22;49686;51.880;5.632;2024-02-28T11:50:17;8.80;99.90
63537;DHT22;49686;51.880;5.632;2024-02-28T11:52:45;9.00;99.90
63537;DHT22;49686;51.880;5.632;2024-02-28T11:55:12;9.40;99.90
63537;DHT22;49686;51.880;5.632;2024-02-28T11:57:39;9.70;99.90
63537;DHT22;49686;51.880;5.632;2024-02-28T12:00:08;9.90;99.90
63537;DHT22;49686;51.880;5.632;2024-02-28T12:02:35;9.90;99.90
63537;DHT22;49686;51.880;5.632;2024-02-28T12:05:04;10.10;99.90
63537;DHT22;49686;51.880;5.632;2024-02-28T12:07:32;10.30;99.90
63537;DHT22;49686;51.880;5.632;2024-02-28T12:10:00;10.30;99.90
63537;DHT22;49686;51.880;5.632;2024-02-28T12:12:27;10.40;99.90
63537;DHT22;49686;51.880;5.632;2024-02-28T12:14:58;10.00;99.90
63537;DHT22;49686;51.880;5.632;2024-02-28T12:17:25;10.00;99.90
63537;DHT22;49686;51.880;5.632;2024-02-28T12:19:53;9.90;99.90
63537;DHT22;49686;51.880;5.632;2024-02-28T12:22:24;9.90;99.90
63537;DHT22;49686;51.880;5.632;2024-02-28T12:24:50;10.00;99.90
63537;DHT22;49686;51.880;5.632;2024-02-28T12:27:17;10.00;99.90
63537;DHT22;49686;51.880;5.632;2024-02-28T12:29:44;10.00;99.90
63537;DHT22;49686;51.880;5.632;2024-02-28T12:32:11;10.00;99.90
63537;DHT22;49686;51.880;5.632;2024-02-28T12:34:38;10.00;99.90
63537;DHT22;49686;51.880;5.632;2024-02-28T12:37:06;10.10;99.90
63537;DHT22;49686;51.880;5.632;2024-02-28T12:39:34;10.00;99.90
63537;DHT22;49686;51.880;5.632;2024-02-28T12:42:02;10.10;99.90
63537;DHT22;49686;51.880;5.632;2024-02-28T12:44:29;10.20;99.90
63537;DHT22;49686;51.880;5.632;2024-02-28T12:46:56;10.00;99.90
63537;DHT22;49686;51.880;5.632;2024-02-28T12:49:22;10.10;99.90
63537;DHT22;49686;51.880;5.632;2024-02-28T12:51:50;10.10;99.90
63537;DHT22;49686;51.880;5.632;2024-02-28T12:54:17;10.20;99.90
63537;DHT22;49686;51.880;5.632;2024-02-28T12:56:45;10.20;99.90
63537;DHT22;49686;51.880;5.632;2024-02-28T12:59:13;10.10;99.90
63537;DHT22;49686;51.880;5.632;2024-02-28T13:01:41;10.20;99.90
63537;DHT22;49686;51.880;5.632;2024-02-28T13:04:08;10.30;99.90
63537;DHT22;49686;51.880;5.632;2024-02-28T13:06:35;10.50;99.90
63537;DHT22;49686;51.880;5.632;2024-02-28T13:09:02;10.60;99.90
63537;DHT22;49686;51.880;5.632;2024-02-28T13:11:30;10.70;99.90
63537;DHT22;49686;51.880;5.632;2024-02-28T13:13:58;10.70;99.90
63537;DHT22;49686;51.880;5.632;2024-02-28T13:16:25;10.70;99.90
63537;DHT22;49686;51.880;5.632;2024-02-28T13:18:52;10.40;99.90
63537;DHT22;49686;51.880;5.632;2024-02-28T13:21:20;10.50;99.90
63537;DHT22;49686;51.880;5.632;2024-02-28T13:23:47;10.50;99.90
63537;DHT22;49686;51.880;5.632;2024-02-28T13:26:14;10.50;99.90
63537;DHT22;49686;51.880;5.632;2024-02-28T13:28:42;10.60;99.90
63537;DHT22;49686;51.880;5.632;2024-02-28T13:31:14;10.60;99.90
63537;DHT22;49686;51.880;5.632;2024-02-28T13:33:41;10.80;99.90
63537;DHT22;49686;51.880;5.632;2024-02-28T13:36:08;10.70;99.90
63537;DHT22;49686;51.880;5.632;2024-02-28T13:38:35;10.70;99.90
63537;DHT22;49686;51.880;5.632;2024-02-28T13:41:02;10.60;99.90
63537;DHT22;49686;51.880;5.632;2024-02-28T13:43:29;10.60;99.90
63537;DHT22;49686;51.880;5.632;2024-02-28T13:45:56;10.50;99.90
63537;DHT22;49686;51.880;5.632;2024-02-28T13:48:25;10.50;99.90
63537;DHT22;49686;51.880;5.632;2024-02-28T13:50:52;10.40;99.90
63537;DHT22;49686;51.880;5.632;2024-02-28T13:53:19;10.30;99.90
63537;DHT22;49686;51.880;5.632;2024-02-28T13:55:47;10.40;99.90
63537;DHT22;49686;51.880;5.632;2024-02-28T13:58:15;10.40;99.90
63537;DHT22;49686;51.880;5.632;2024-02-28T14:00:42;10.60;99.90
63537;DHT22;49686;51.880;5.632;2024-02-28T14:03:09;10.70;99.90
63537;DHT22;49686;51.880;5.632;2024-02-28T14:05:37;11.00;99.90
63537;DHT22;49686;51.880;5.632;2024-02-28T14:08:05;11.20;99.90
63537;DHT22;49686;51.880;5.632;2024-02-28T14:10:32;11.10;99.90
63537;DHT22;49686;51.880;5.632;2024-02-28T14:12:59;11.10;99.90
63537;DHT22;49686;51.880;5.632;2024-02-28T14:15:26;11.30;99.90
63537;DHT22;49686;51.880;5.632;2024-02-28T14:17:55;11.40;99.90
63537;DHT22;49686;51.880;5.632;2024-02-28T14:20:22;11.00;99.90
63537;DHT22;49686;51.880;5.632;2024-02-28T14:22:51;10.60;99.90
63537;DHT22;49686;51.880;5.632;2024-02-28T14:25:18;10.50;99.90
63537;DHT22;49686;51.880;5.632;2024-02-28T14:27:46;10.30;99.90
63537;DHT22;49686;51.880;5.632;2024-02-28T14:30:14;10.20;99.90
63537;DHT22;49686;51.880;5.632;2024-02-28T14:32:42;10.10;99.90
63537;DHT22;49686;51.880;5.632;2024-02-28T14:35:10;10.10;99.90
63537;DHT22;49686;51.880;5.632;2024-02-28T14:37:38;10.30;99.90
63537;DHT22;49686;51.880;5.632;2024-02-28T14:40:08;10.40;99.90
63537;DHT22;49686;51.880;5.632;2024-02-28T14:42:35;10.30;99.90
63537;DHT22;49686;51.880;5.632;2024-02-28T14:45:03;10.30;99.90
63537;DHT22;49686;51.880;5.632;2024-02-28T14:47:30;10.10;99.90
63537;DHT22;49686;51.880;5.632;2024-02-28T14:49:57;10.00;99.90
63537;DHT22;49686;51.880;5.632;2024-02-28T14:52:23;10.00;99.90
63537;DHT22;49686;51.880;5.632;2024-02-28T14:54:50;10.00;99.90
63537;DHT22;49686;51.880;5.632;2024-02-28T14:57:19;10.10;99.90
63537;DHT22;49686;51.880;5.632;2024-02-28T14:59:48;10.20;99.90
63537;DHT22;49686;51.880;5.632;2024-02-28T15:02:15;10.30;99.90
63537;DHT22;49686;51.880;5.632;2024-02-28T15:04:42;10.20;99.90
63537;DHT22;49686;51.880;5.632;2024-02-28T15:07:09;10.10;99.90
63537;DHT22;49686;51.880;5.632;2024-02-28T15:09:36;9.90;99.90
63537;DHT22;49686;51.880;5.632;2024-02-28T15:12:07;9.80;99.90
63537;DHT22;49686;51.880;5.632;2024-02-28T15:14:37;9.70;99.90
63537;DHT22;49686;51.880;5.632;2024-02-28T15:17:07;9.70;99.90
63537;DHT22;49686;51.880;5.632;2024-02-28T15:19:34;9.80;99.90
63537;DHT22;49686;51.880;5.632;2024-02-28T15:22:01;9.80;99.90
63537;DHT22;49686;51.880;5.632;2024-02-28T15:24:28;9.80;99.90
63537;DHT22;49686;51.880;5.632;2024-02-28T15:26:55;9.90;99.90
63537;DHT22;49686;51.880;5.632;2024-02-28T15:29:22;9.80;99.90
63537;DHT22;49686;51.880;5.632;2024-02-28T15:31:50;9.70;99.90
63537;DHT22;49686;51.880;5.632;2024-02-28T15:34:17;9.80;99.90
63537;DHT22;49686;51.880;5.632;2024-02-28T15:36:44;9.80;99.90
63537;DHT22;49686;51.880;5.632;2024-02-28T15:39:11;9.70;99.90
63537;DHT22;49686;51.880;5.632;2024-02-28T15:41:39;9.80;99.90
63537;DHT22;49686;51.880;5.632;2024-02-28T15:44:07;9.80;99.90